sensor_id;sensor_type;location;lat;lon;timestamp;pressure;altitude;pressure_sealevel;temperature
8533;BMP280;4304;53.876;10.662;2023-08-20T00:00:58;101919.28;;;19.02
8533;BMP280;4304;53.876;10.662;2023-08-20T00:03:24;101916.88;;;18.99
8533;BMP280;4304;53.876;10.662;2023-08-20T00:05:51;101928.59;;;18.95
8533;BMP280;4304;53.876;10.662;2023-08-20T00:08:16;101920.00;;;18.93
8533;BMP280;4304;53.876;10.662;2023-08-20T00:10:42;101916.09;;;18.87
8533;BMP280;4304;53.876;10.662;2023-08-20T00:13:07;101919.56;;;18.88
8533;BMP280;4304;53.876;10.662;2023-08-20T00:15:33;101931.91;;;18.87
8533;BMP280;4304;53.876;10.662;2023-08-20T00:17:58;101920.06;;;18.82
8533;BMP280;4304;53.876;10.662;2023-08-20T00:20:24;101933.28;;;18.91
8533;BMP280;4304;53.876;10.662;2023-08-20T00:22:50;101937.50;;;18.94
8533;BMP280;4304;53.876;10.662;2023-08-20T00:25:16;101943.91;;;18.81
8533;BMP280;4304;53.876;10.662;2023-08-20T00:27:43;101942.22;;;18.80
8533;BMP280;4304;53.876;10.662;2023-08-20T00:30:09;101945.19;;;18.86
8533;BMP280;4304;53.876;10.662;2023-08-20T00:32:35;101945.06;;;18.87
8533;BMP280;4304;53.876;10.662;2023-08-20T00:35:01;101955.38;;;18.80
8533;BMP280;4304;53.876;10.662;2023-08-20T00:37:28;101953.47;;;18.82
8533;BMP280;4304;53.876;10.662;2023-08-20T00:39:53;101961.38;;;18.82
8533;BMP280;4304;53.876;10.662;2023-08-20T00:42:19;101954.44;;;18.81
8533;BMP280;4304;53.876;10.662;2023-08-20T00:44:44;101961.59;;;18.79
8533;BMP280;4304;53.876;10.662;2023-08-20T00:47:10;101966.28;;;18.75
8533;BMP280;4304;53.876;10.662;2023-08-20T00:49:37;101958.38;;;18.75
8533;BMP280;4304;53.876;10.662;2023-08-20T00:52:03;101969.50;;;18.79
8533;BMP280;4304;53.876;10.662;2023-08-20T00:54:29;101975.28;;;18.73
8533;BMP280;4304;53.876;10.662;2023-08-20T00:56:55;101979.34;;;18.77
8533;BMP280;4304;53.876;10.662;2023-08-20T00:59:20;101981.50;;;18.72
8533;BMP280;4304;53.876;10.662;2023-08-20T01:01:46;101980.09;;;18.68
8533;BMP280;4304;53.876;10.662;2023-08-20T01:04:11;101981.44;;;18.62
8533;BMP280;4304;53.876;10.662;2023-08-20T01:12:17;101984.47;;;18.47
8533;BMP280;4304;53.876;10.662;2023-08-20T01:14:44;101984.09;;;18.40
8533;BMP280;4304;53.876;10.662;2023-08-20T01:17:09;101978.38;;;18.36
8533;BMP280;4304;53.876;10.662;2023-08-20T01:19:35;101985.94;;;18.29
8533;BMP280;4304;53.876;10.662;2023-08-20T01:30:17;101992.53;;;18.13
8533;BMP280;4304;53.876;10.662;2023-08-20T01:32:43;101987.72;;;18.07
8533;BMP280;4304;53.876;10.662;2023-08-20T01:35:12;101989.25;;;18.09
8533;BMP280;4304;53.876;10.662;2023-08-20T01:37:41;101991.81;;;18.00
8533;BMP280;4304;53.876;10.662;2023-08-20T01:40:07;101986.53;;;17.89
8533;BMP280;4304;53.876;10.662;2023-08-20T01:42:39;101986.28;;;17.81
8533;BMP280;4304;53.876;10.662;2023-08-20T01:45:06;101977.78;;;17.78
8533;BMP280;4304;53.876;10.662;2023-08-20T01:47:32;101982.47;;;17.74
8533;BMP280;4304;53.876;10.662;2023-08-20T01:49:58;101985.91;;;17.75
8533;BMP280;4304;53.876;10.662;2023-08-20T01:52:23;101979.69;;;17.65
8533;BMP280;4304;53.876;10.662;2023-08-20T01:54:49;101975.38;;;17.64
8533;BMP280;4304;53.876;10.662;2023-08-20T01:57:15;101976.56;;;17.60
8533;BMP280;4304;53.876;10.662;2023-08-20T01:59:40;101987.31;;;17.57
8533;BMP280;4304;53.876;10.662;2023-08-20T02:02:05;101986.25;;;17.49
8533;BMP280;4304;53.876;10.662;2023-08-20T02:04:31;101983.00;;;17.45
8533;BMP280;4304;53.876;10.662;2023-08-20T02:06:57;101987.06;;;17.38
8533;BMP280;4304;53.876;10.662;2023-08-20T02:09:22;101977.00;;;17.32
8533;BMP280;4304;53.876;10.662;2023-08-20T02:11:47;101977.97;;;17.31
8533;BMP280;4304;53.876;10.662;2023-08-20T02:14:13;101975.09;;;17.23
8533;BMP280;4304;53.876;10.662;2023-08-20T02:16:38;101983.47;;;17.28
8533;BMP280;4304;53.876;10.662;2023-08-20T02:19:04;101983.06;;;17.22
8533;BMP280;4304;53.876;10.662;2023-08-20T02:21:31;101980.66;;;17.19
8533;BMP280;4304;53.876;10.662;2023-08-20T02:23:57;101987.34;;;17.23
8533;BMP280;4304;53.876;10.662;2023-08-20T02:26:22;101996.50;;;17.17
8533;BMP280;4304;53.876;10.662;2023-08-20T02:28:48;101989.44;;;17.07
8533;BMP280;4304;53.876;10.662;2023-08-20T02:31:13;101987.66;;;17.08
8533;BMP280;4304;53.876;10.662;2023-08-20T02:33:39;101986.81;;;17.07
8533;BMP280;4304;53.876;10.662;2023-08-20T02:36:04;101987.53;;;17.09
8533;BMP280;4304;53.876;10.662;2023-08-20T02:38:30;101994.81;;;17.06
8533;BMP280;4304;53.876;10.662;2023-08-20T02:40:55;101974.25;;;17.00
8533;BMP280;4304;53.876;10.662;2023-08-20T02:43:21;101986.75;;;16.96
8533;BMP280;4304;53.876;10.662;2023-08-20T02:45:46;101992.34;;;16.92
8533;BMP280;4304;53.876;10.662;2023-08-20T02:48:13;101975.03;;;16.89
8533;BMP280;4304;53.876;10.662;2023-08-20T02:50:39;101983.16;;;16.86
8533;BMP280;4304;53.876;10.662;2023-08-20T02:53:04;101996.16;;;16.88
8533;BMP280;4304;53.876;10.662;2023-08-20T02:55:30;101994.72;;;16.84
8533;BMP280;4304;53.876;10.662;2023-08-20T02:57:56;101983.81;;;16.77
8533;BMP280;4304;53.876;10.662;2023-08-20T03:00:21;101986.56;;;16.76
8533;BMP280;4304;53.876;10.662;2023-08-20T03:02:47;101989.84;;;16.67
8533;BMP280;4304;53.876;10.662;2023-08-20T03:05:12;101996.88;;;16.67
8533;BMP280;4304;53.876;10.662;2023-08-20T03:07:38;101982.06;;;16.66
8533;BMP280;4304;53.876;10.662;2023-08-20T03:10:03;101988.78;;;16.69
8533;BMP280;4304;53.876;10.662;2023-08-20T03:12:29;101986.28;;;16.68
8533;BMP280;4304;53.876;10.662;2023-08-20T03:14:55;101992.34;;;16.68
8533;BMP280;4304;53.876;10.662;2023-08-20T03:17:20;101992.47;;;16.67
8533;BMP280;4304;53.876;10.662;2023-08-20T03:19:59;101991.41;;;16.69
8533;BMP280;4304;53.876;10.662;2023-08-20T03:22:25;101987.72;;;16.72
8533;BMP280;4304;53.876;10.662;2023-08-20T03:24:51;101995.06;;;16.79
8533;BMP280;4304;53.876;10.662;2023-08-20T03:27:17;102003.66;;;16.81
8533;BMP280;4304;53.876;10.662;2023-08-20T03:29:43;101998.41;;;16.81
8533;BMP280;4304;53.876;10.662;2023-08-20T03:32:09;101996.59;;;16.82
8533;BMP280;4304;53.876;10.662;2023-08-20T03:34:34;102000.19;;;16.81
8533;BMP280;4304;53.876;10.662;2023-08-20T03:37:00;102009.84;;;16.80
8533;BMP280;4304;53.876;10.662;2023-08-20T03:39:26;101999.69;;;16.76
8533;BMP280;4304;53.876;10.662;2023-08-20T03:41:52;102002.44;;;16.74
8533;BMP280;4304;53.876;10.662;2023-08-20T03:44:17;102011.84;;;16.77
8533;BMP280;4304;53.876;10.662;2023-08-20T03:46:43;102021.31;;;16.79
8533;BMP280;4304;53.876;10.662;2023-08-20T03:49:10;102026.44;;;16.81
8533;BMP280;4304;53.876;10.662;2023-08-20T03:51:36;102027.16;;;16.83
8533;BMP280;4304;53.876;10.662;2023-08-20T03:54:02;102022.75;;;16.83
8533;BMP280;4304;53.876;10.662;2023-08-20T03:56:27;102030.50;;;16.85
8533;BMP280;4304;53.876;10.662;2023-08-20T03:58:52;102033.84;;;16.87
8533;BMP280;4304;53.876;10.662;2023-08-20T04:01:18;102035.03;;;16.83
8533;BMP280;4304;53.876;10.662;2023-08-20T04:03:45;102037.06;;;16.79
8533;BMP280;4304;53.876;10.662;2023-08-20T04:06:10;102038.72;;;16.80
8533;BMP280;4304;53.876;10.662;2023-08-20T04:08:36;102043.88;;;16.82
8533;BMP280;4304;53.876;10.662;2023-08-20T04:11:01;102042.59;;;16.87
8533;BMP280;4304;53.876;10.662;2023-08-20T04:13:28;102051.31;;;16.88
8533;BMP280;4304;53.876;10.662;2023-08-20T04:15:53;102039.00;;;16.88
8533;BMP280;4304;53.876;10.662;2023-08-20T04:18:19;102041.41;;;16.91
8533;BMP280;4304;53.876;10.662;2023-08-20T04:20:44;102043.00;;;16.94
8533;BMP280;4304;53.876;10.662;2023-08-20T04:23:10;102048.84;;;16.97
8533;BMP280;4304;53.876;10.662;2023-08-20T04:25:35;102054.72;;;17.01
8533;BMP280;4304;53.876;10.662;2023-08-20T04:28:01;102062.50;;;17.02
8533;BMP280;4304;53.876;10.662;2023-08-20T04:30:26;102068.78;;;17.00
8533;BMP280;4304;53.876;10.662;2023-08-20T04:32:51;102060.59;;;17.04
8533;BMP280;4304;53.876;10.662;2023-08-20T04:35:17;102062.03;;;17.08
8533;BMP280;4304;53.876;10.662;2023-08-20T04:37:42;102057.75;;;17.07
8533;BMP280;4304;53.876;10.662;2023-08-20T04:40:08;102068.97;;;17.09
8533;BMP280;4304;53.876;10.662;2023-08-20T04:42:33;102079.47;;;17.09
8533;BMP280;4304;53.876;10.662;2023-08-20T04:44:58;102077.47;;;17.12
8533;BMP280;4304;53.876;10.662;2023-08-20T04:47:24;102073.66;;;17.16
8533;BMP280;4304;53.876;10.662;2023-08-20T04:49:50;102078.50;;;17.22
8533;BMP280;4304;53.876;10.662;2023-08-20T04:52:15;102068.94;;;17.21
8533;BMP280;4304;53.876;10.662;2023-08-20T04:54:40;102075.41;;;17.28
8533;BMP280;4304;53.876;10.662;2023-08-20T04:57:05;102075.31;;;17.30
8533;BMP280;4304;53.876;10.662;2023-08-20T04:59:31;102081.00;;;17.24
8533;BMP280;4304;53.876;10.662;2023-08-20T05:01:56;102079.38;;;17.34
8533;BMP280;4304;53.876;10.662;2023-08-20T05:04:22;102076.75;;;17.34
8533;BMP280;4304;53.876;10.662;2023-08-20T05:06:47;102062.19;;;17.41
8533;BMP280;4304;53.876;10.662;2023-08-20T05:09:13;102067.44;;;17.41
8533;BMP280;4304;53.876;10.662;2023-08-20T05:11:38;102063.72;;;17.32
8533;BMP280;4304;53.876;10.662;2023-08-20T05:14:03;102066.88;;;17.48
8533;BMP280;4304;53.876;10.662;2023-08-20T05:16:29;102055.66;;;17.57
8533;BMP280;4304;53.876;10.662;2023-08-20T05:18:54;102068.59;;;17.60
8533;BMP280;4304;53.876;10.662;2023-08-20T05:21:19;102076.16;;;17.64
8533;BMP280;4304;53.876;10.662;2023-08-20T05:23:45;102068.75;;;17.69
8533;BMP280;4304;53.876;10.662;2023-08-20T05:26:10;102074.00;;;17.69
8533;BMP280;4304;53.876;10.662;2023-08-20T05:28:35;102062.78;;;17.67
8533;BMP280;4304;53.876;10.662;2023-08-20T05:31:01;102065.78;;;17.74
8533;BMP280;4304;53.876;10.662;2023-08-20T05:33:26;102059.19;;;17.79
8533;BMP280;4304;53.876;10.662;2023-08-20T05:35:52;102057.75;;;17.75
8533;BMP280;4304;53.876;10.662;2023-08-20T05:38:17;102058.00;;;17.83
8533;BMP280;4304;53.876;10.662;2023-08-20T05:40:43;102059.34;;;17.89
8533;BMP280;4304;53.876;10.662;2023-08-20T05:43:08;102047.88;;;18.00
8533;BMP280;4304;53.876;10.662;2023-08-20T05:45:34;102040.84;;;18.12
8533;BMP280;4304;53.876;10.662;2023-08-20T05:48:00;102049.22;;;18.17
8533;BMP280;4304;53.876;10.662;2023-08-20T05:50:25;102047.06;;;18.22
8533;BMP280;4304;53.876;10.662;2023-08-20T05:52:52;102067.16;;;18.23
8533;BMP280;4304;53.876;10.662;2023-08-20T05:55:17;102060.13;;;18.23
8533;BMP280;4304;53.876;10.662;2023-08-20T05:57:43;102058.44;;;18.22
8533;BMP280;4304;53.876;10.662;2023-08-20T06:00:09;102067.91;;;18.25
8533;BMP280;4304;53.876;10.662;2023-08-20T06:02:35;102057.22;;;18.26
8533;BMP280;4304;53.876;10.662;2023-08-20T06:05:01;102066.31;;;18.22
8533;BMP280;4304;53.876;10.662;2023-08-20T06:07:27;102057.22;;;18.37
8533;BMP280;4304;53.876;10.662;2023-08-20T06:09:53;102060.81;;;18.47
8533;BMP280;4304;53.876;10.662;2023-08-20T06:12:18;102054.09;;;18.54
8533;BMP280;4304;53.876;10.662;2023-08-20T06:14:43;102066.53;;;18.63
8533;BMP280;4304;53.876;10.662;2023-08-20T06:17:09;102056.47;;;18.68
8533;BMP280;4304;53.876;10.662;2023-08-20T06:19:34;102065.09;;;18.70
8533;BMP280;4304;53.876;10.662;2023-08-20T06:21:59;102071.06;;;18.72
8533;BMP280;4304;53.876;10.662;2023-08-20T06:24:25;102076.09;;;18.75
8533;BMP280;4304;53.876;10.662;2023-08-20T06:26:51;102087.91;;;18.80
8533;BMP280;4304;53.876;10.662;2023-08-20T06:29:17;102086.50;;;18.87
8533;BMP280;4304;53.876;10.662;2023-08-20T06:31:43;102094.41;;;18.76
8533;BMP280;4304;53.876;10.662;2023-08-20T06:34:09;102099.78;;;18.75
8533;BMP280;4304;53.876;10.662;2023-08-20T06:36:35;102108.16;;;18.80
8533;BMP280;4304;53.876;10.662;2023-08-20T06:39:01;102097.38;;;18.83
8533;BMP280;4304;53.876;10.662;2023-08-20T06:41:26;102102.19;;;18.88
8533;BMP280;4304;53.876;10.662;2023-08-20T06:43:51;102104.81;;;18.88
8533;BMP280;4304;53.876;10.662;2023-08-20T06:46:17;102105.50;;;19.01
8533;BMP280;4304;53.876;10.662;2023-08-20T06:48:42;102106.25;;;19.03
8533;BMP280;4304;53.876;10.662;2023-08-20T06:51:13;102103.13;;;18.98
8533;BMP280;4304;53.876;10.662;2023-08-20T06:53:39;102101.44;;;19.08
8533;BMP280;4304;53.876;10.662;2023-08-20T06:56:06;102107.91;;;19.04
8533;BMP280;4304;53.876;10.662;2023-08-20T06:58:32;102107.13;;;19.24
8533;BMP280;4304;53.876;10.662;2023-08-20T07:00:57;102091.47;;;19.43
8533;BMP280;4304;53.876;10.662;2023-08-20T07:03:33;102098.94;;;19.58
8533;BMP280;4304;53.876;10.662;2023-08-20T07:05:58;102099.97;;;19.46
8533;BMP280;4304;53.876;10.662;2023-08-20T07:08:24;102098.25;;;19.56
8533;BMP280;4304;53.876;10.662;2023-08-20T07:10:50;102095.69;;;19.66
8533;BMP280;4304;53.876;10.662;2023-08-20T07:13:15;102086.09;;;19.85
8533;BMP280;4304;53.876;10.662;2023-08-20T07:15:40;102088.34;;;19.69
8533;BMP280;4304;53.876;10.662;2023-08-20T07:18:06;102093.66;;;19.78
8533;BMP280;4304;53.876;10.662;2023-08-20T07:20:31;102103.53;;;20.17
8533;BMP280;4304;53.876;10.662;2023-08-20T07:22:56;102107.94;;;20.66
8533;BMP280;4304;53.876;10.662;2023-08-20T07:25:21;102100.69;;;21.92
8533;BMP280;4304;53.876;10.662;2023-08-20T07:27:47;102102.66;;;22.35
8533;BMP280;4304;53.876;10.662;2023-08-20T07:30:12;102109.19;;;22.41
8533;BMP280;4304;53.876;10.662;2023-08-20T07:32:38;102116.00;;;22.70
8533;BMP280;4304;53.876;10.662;2023-08-20T07:35:04;102121.88;;;22.73
8533;BMP280;4304;53.876;10.662;2023-08-20T07:37:29;102122.03;;;22.99
8533;BMP280;4304;53.876;10.662;2023-08-20T07:39:54;102117.28;;;23.37
8533;BMP280;4304;53.876;10.662;2023-08-20T07:42:20;102108.41;;;22.84
8533;BMP280;4304;53.876;10.662;2023-08-20T07:44:45;102106.13;;;22.72
8533;BMP280;4304;53.876;10.662;2023-08-20T07:47:10;102104.53;;;23.06
8533;BMP280;4304;53.876;10.662;2023-08-20T07:49:36;102117.16;;;23.56
8533;BMP280;4304;53.876;10.662;2023-08-20T07:52:01;102117.72;;;24.02
8533;BMP280;4304;53.876;10.662;2023-08-20T07:54:27;102126.19;;;24.05
8533;BMP280;4304;53.876;10.662;2023-08-20T07:56:53;102113.31;;;23.93
8533;BMP280;4304;53.876;10.662;2023-08-20T07:59:19;102120.00;;;24.22
8533;BMP280;4304;53.876;10.662;2023-08-20T08:01:47;102114.66;;;24.39
8533;BMP280;4304;53.876;10.662;2023-08-20T08:04:13;102120.41;;;25.01
8533;BMP280;4304;53.876;10.662;2023-08-20T08:06:39;102119.41;;;25.02
8533;BMP280;4304;53.876;10.662;2023-08-20T08:09:39;102119.47;;;24.77
8533;BMP280;4304;53.876;10.662;2023-08-20T08:12:05;102119.78;;;25.15
8533;BMP280;4304;53.876;10.662;2023-08-20T08:14:30;102121.34;;;24.51
8533;BMP280;4304;53.876;10.662;2023-08-20T08:16:56;102118.81;;;24.42
8533;BMP280;4304;53.876;10.662;2023-08-20T08:19:22;102101.97;;;24.08
8533;BMP280;4304;53.876;10.662;2023-08-20T08:21:47;102098.56;;;23.73
8533;BMP280;4304;53.876;10.662;2023-08-20T08:24:13;102114.69;;;24.47
8533;BMP280;4304;53.876;10.662;2023-08-20T08:26:39;102124.94;;;24.42
8533;BMP280;4304;53.876;10.662;2023-08-20T08:29:05;102108.72;;;24.02
8533;BMP280;4304;53.876;10.662;2023-08-20T08:31:31;102104.84;;;24.14
8533;BMP280;4304;53.876;10.662;2023-08-20T08:33:57;102116.41;;;24.05
8533;BMP280;4304;53.876;10.662;2023-08-20T08:36:22;102124.75;;;24.69
8533;BMP280;4304;53.876;10.662;2023-08-20T08:38:50;102114.41;;;24.99
8533;BMP280;4304;53.876;10.662;2023-08-20T08:41:16;102114.66;;;25.45
8533;BMP280;4304;53.876;10.662;2023-08-20T08:43:41;102108.41;;;25.62
8533;BMP280;4304;53.876;10.662;2023-08-20T08:46:14;102121.53;;;25.87
8533;BMP280;4304;53.876;10.662;2023-08-20T08:48:45;102121.19;;;25.98
8533;BMP280;4304;53.876;10.662;2023-08-20T08:51:14;102124.91;;;26.51
8533;BMP280;4304;53.876;10.662;2023-08-20T08:53:41;102146.41;;;26.49
8533;BMP280;4304;53.876;10.662;2023-08-20T08:56:27;102129.31;;;26.74
8533;BMP280;4304;53.876;10.662;2023-08-20T08:58:53;102119.47;;;26.74
8533;BMP280;4304;53.876;10.662;2023-08-20T09:01:19;102119.78;;;26.79
8533;BMP280;4304;53.876;10.662;2023-08-20T09:03:45;102137.91;;;27.00
8533;BMP280;4304;53.876;10.662;2023-08-20T09:06:10;102135.78;;;26.79
8533;BMP280;4304;53.876;10.662;2023-08-20T09:08:36;102150.81;;;26.72
8533;BMP280;4304;53.876;10.662;2023-08-20T09:11:02;102134.81;;;26.26
8533;BMP280;4304;53.876;10.662;2023-08-20T09:13:39;102113.22;;;26.52
8533;BMP280;4304;53.876;10.662;2023-08-20T09:16:05;102120.69;;;26.64
8533;BMP280;4304;53.876;10.662;2023-08-20T09:18:32;102139.56;;;26.47
8533;BMP280;4304;53.876;10.662;2023-08-20T09:20:57;102123.41;;;26.48
8533;BMP280;4304;53.876;10.662;2023-08-20T09:23:28;102129.78;;;26.39
8533;BMP280;4304;53.876;10.662;2023-08-20T09:25:53;102110.00;;;26.72
8533;BMP280;4304;53.876;10.662;2023-08-20T09:28:19;102141.44;;;26.84
8533;BMP280;4304;53.876;10.662;2023-08-20T09:30:59;102132.00;;;27.04
8533;BMP280;4304;53.876;10.662;2023-08-20T09:33:28;102121.28;;;27.12
8533;BMP280;4304;53.876;10.662;2023-08-20T09:35:54;102140.84;;;27.12
8533;BMP280;4304;53.876;10.662;2023-08-20T09:38:21;102138.13;;;27.43
8533;BMP280;4304;53.876;10.662;2023-08-20T09:40:49;102166.00;;;27.70
8533;BMP280;4304;53.876;10.662;2023-08-20T09:43:16;102154.78;;;27.52
8533;BMP280;4304;53.876;10.662;2023-08-20T09:45:42;102147.50;;;27.39
8533;BMP280;4304;53.876;10.662;2023-08-20T09:48:09;102161.69;;;27.39
8533;BMP280;4304;53.876;10.662;2023-08-20T09:50:35;102133.78;;;27.19
8533;BMP280;4304;53.876;10.662;2023-08-20T09:53:17;102134.78;;;26.88
8533;BMP280;4304;53.876;10.662;2023-08-20T09:55:49;102135.84;;;26.71
8533;BMP280;4304;53.876;10.662;2023-08-20T09:58:15;102164.34;;;27.09
8533;BMP280;4304;53.876;10.662;2023-08-20T10:00:41;102150.97;;;27.17
8533;BMP280;4304;53.876;10.662;2023-08-20T10:03:07;102158.88;;;27.33
8533;BMP280;4304;53.876;10.662;2023-08-20T10:05:33;102156.16;;;27.41
8533;BMP280;4304;53.876;10.662;2023-08-20T10:07:58;102156.44;;;27.53
8533;BMP280;4304;53.876;10.662;2023-08-20T10:10:24;102144.53;;;27.34
8533;BMP280;4304;53.876;10.662;2023-08-20T10:12:54;102123.19;;;27.34
8533;BMP280;4304;53.876;10.662;2023-08-20T10:15:21;102180.50;;;27.53
8533;BMP280;4304;53.876;10.662;2023-08-20T10:17:49;102122.72;;;27.00
8533;BMP280;4304;53.876;10.662;2023-08-20T10:20:15;102132.16;;;27.10
8533;BMP280;4304;53.876;10.662;2023-08-20T10:22:44;102138.28;;;27.41
8533;BMP280;4304;53.876;10.662;2023-08-20T10:25:30;102142.34;;;27.59
8533;BMP280;4304;53.876;10.662;2023-08-20T10:28:11;102133.06;;;27.92
8533;BMP280;4304;53.876;10.662;2023-08-20T10:30:38;102109.75;;;28.00
8533;BMP280;4304;53.876;10.662;2023-08-20T10:33:04;102124.19;;;28.28
8533;BMP280;4304;53.876;10.662;2023-08-20T10:38:06;102083.97;;;28.07
8533;BMP280;4304;53.876;10.662;2023-08-20T10:43:29;102130.38;;;28.14
8533;BMP280;4304;53.876;10.662;2023-08-20T10:46:22;102132.88;;;28.16
8533;BMP280;4304;53.876;10.662;2023-08-20T10:51:37;102108.03;;;27.71
8533;BMP280;4304;53.876;10.662;2023-08-20T10:54:07;102096.28;;;27.94
8533;BMP280;4304;53.876;10.662;2023-08-20T10:56:43;102154.97;;;28.10
8533;BMP280;4304;53.876;10.662;2023-08-20T10:59:17;102154.66;;;28.05
8533;BMP280;4304;53.876;10.662;2023-08-20T11:01:49;102092.75;;;28.16
8533;BMP280;4304;53.876;10.662;2023-08-20T11:04:16;102111.69;;;27.92
8533;BMP280;4304;53.876;10.662;2023-08-20T11:06:42;102151.06;;;27.98
8533;BMP280;4304;53.876;10.662;2023-08-20T11:09:08;102102.75;;;27.63
8533;BMP280;4304;53.876;10.662;2023-08-20T11:11:33;102106.69;;;27.52
8533;BMP280;4304;53.876;10.662;2023-08-20T11:14:06;102109.75;;;27.86
8533;BMP280;4304;53.876;10.662;2023-08-20T11:16:33;102117.47;;;27.95
8533;BMP280;4304;53.876;10.662;2023-08-20T11:18:59;102112.03;;;27.75
8533;BMP280;4304;53.876;10.662;2023-08-20T11:21:24;102111.31;;;27.95
8533;BMP280;4304;53.876;10.662;2023-08-20T11:23:50;102092.00;;;28.07
8533;BMP280;4304;53.876;10.662;2023-08-20T11:26:17;102144.50;;;28.00
8533;BMP280;4304;53.876;10.662;2023-08-20T11:28:45;102142.44;;;28.10
8533;BMP280;4304;53.876;10.662;2023-08-20T11:31:14;102109.81;;;28.15
8533;BMP280;4304;53.876;10.662;2023-08-20T11:33:40;102095.59;;;28.29
8533;BMP280;4304;53.876;10.662;2023-08-20T11:36:05;102116.56;;;28.68
8533;BMP280;4304;53.876;10.662;2023-08-20T11:38:31;102107.75;;;28.60
8533;BMP280;4304;53.876;10.662;2023-08-20T11:40:59;102123.84;;;28.45
8533;BMP280;4304;53.876;10.662;2023-08-20T11:43:27;102115.44;;;28.34
8533;BMP280;4304;53.876;10.662;2023-08-20T11:45:53;102103.66;;;28.92
8533;BMP280;4304;53.876;10.662;2023-08-20T11:48:20;102139.75;;;29.11
8533;BMP280;4304;53.876;10.662;2023-08-20T11:50:46;102164.75;;;28.68
8533;BMP280;4304;53.876;10.662;2023-08-20T11:53:12;102113.03;;;28.68
8533;BMP280;4304;53.876;10.662;2023-08-20T11:55:39;102138.94;;;28.96
8533;BMP280;4304;53.876;10.662;2023-08-20T11:58:05;102139.72;;;28.47
8533;BMP280;4304;53.876;10.662;2023-08-20T12:00:32;102110.16;;;28.55
8533;BMP280;4304;53.876;10.662;2023-08-20T12:02:58;102128.63;;;28.93
8533;BMP280;4304;53.876;10.662;2023-08-20T12:05:27;102105.28;;;28.73
8533;BMP280;4304;53.876;10.662;2023-08-20T12:10:23;102110.53;;;28.09
8533;BMP280;4304;53.876;10.662;2023-08-20T12:12:49;102115.91;;;28.23
8533;BMP280;4304;53.876;10.662;2023-08-20T12:15:15;102094.53;;;27.87
8533;BMP280;4304;53.876;10.662;2023-08-20T12:17:40;102094.31;;;27.74
8533;BMP280;4304;53.876;10.662;2023-08-20T12:20:06;102073.66;;;28.33
8533;BMP280;4304;53.876;10.662;2023-08-20T12:22:38;102089.94;;;27.95
8533;BMP280;4304;53.876;10.662;2023-08-20T12:25:05;102082.31;;;27.55
8533;BMP280;4304;53.876;10.662;2023-08-20T12:27:31;102090.50;;;27.24
8533;BMP280;4304;53.876;10.662;2023-08-20T12:29:57;102078.06;;;27.39
8533;BMP280;4304;53.876;10.662;2023-08-20T12:32:22;102102.47;;;27.36
8533;BMP280;4304;53.876;10.662;2023-08-20T12:34:47;102087.25;;;27.36
8533;BMP280;4304;53.876;10.662;2023-08-20T12:37:13;102090.41;;;27.40
8533;BMP280;4304;53.876;10.662;2023-08-20T12:39:38;102109.59;;;27.65
8533;BMP280;4304;53.876;10.662;2023-08-20T12:42:03;102110.81;;;27.77
8533;BMP280;4304;53.876;10.662;2023-08-20T12:44:29;102095.81;;;27.91
8533;BMP280;4304;53.876;10.662;2023-08-20T12:46:54;102089.38;;;27.85
8533;BMP280;4304;53.876;10.662;2023-08-20T12:49:20;102101.13;;;27.76
8533;BMP280;4304;53.876;10.662;2023-08-20T12:51:45;102098.03;;;27.51
8533;BMP280;4304;53.876;10.662;2023-08-20T12:54:10;102097.34;;;27.26
8533;BMP280;4304;53.876;10.662;2023-08-20T12:56:36;102089.50;;;27.03
8533;BMP280;4304;53.876;10.662;2023-08-20T12:59:02;102075.31;;;27.02
8533;BMP280;4304;53.876;10.662;2023-08-20T13:01:28;102088.06;;;26.84
8533;BMP280;4304;53.876;10.662;2023-08-20T13:03:53;102093.47;;;26.76
8533;BMP280;4304;53.876;10.662;2023-08-20T13:06:19;102089.25;;;26.90
8533;BMP280;4304;53.876;10.662;2023-08-20T13:08:45;102062.63;;;27.04
8533;BMP280;4304;53.876;10.662;2023-08-20T13:11:13;102077.81;;;27.04
8533;BMP280;4304;53.876;10.662;2023-08-20T13:13:39;102080.31;;;27.05
8533;BMP280;4304;53.876;10.662;2023-08-20T13:16:05;102085.19;;;27.02
8533;BMP280;4304;53.876;10.662;2023-08-20T13:18:30;102057.16;;;26.98
8533;BMP280;4304;53.876;10.662;2023-08-20T13:20:56;102056.47;;;27.04
8533;BMP280;4304;53.876;10.662;2023-08-20T13:23:21;102055.50;;;26.97
8533;BMP280;4304;53.876;10.662;2023-08-20T13:25:46;102072.13;;;27.07
8533;BMP280;4304;53.876;10.662;2023-08-20T13:28:12;102085.03;;;26.95
8533;BMP280;4304;53.876;10.662;2023-08-20T13:30:37;102081.16;;;26.67
8533;BMP280;4304;53.876;10.662;2023-08-20T13:33:03;102103.63;;;26.73
8533;BMP280;4304;53.876;10.662;2023-08-20T13:35:28;102059.72;;;26.91
8533;BMP280;4304;53.876;10.662;2023-08-20T13:37:54;102076.25;;;26.87
8533;BMP280;4304;53.876;10.662;2023-08-20T13:40:19;102098.09;;;26.90
8533;BMP280;4304;53.876;10.662;2023-08-20T13:42:45;102084.75;;;26.90
8533;BMP280;4304;53.876;10.662;2023-08-20T13:45:10;102096.56;;;26.88
8533;BMP280;4304;53.876;10.662;2023-08-20T13:47:35;102069.25;;;26.86
8533;BMP280;4304;53.876;10.662;2023-08-20T13:50:01;102080.19;;;26.99
8533;BMP280;4304;53.876;10.662;2023-08-20T13:52:28;102075.97;;;26.74
8533;BMP280;4304;53.876;10.662;2023-08-20T13:54:54;102074.28;;;26.73
8533;BMP280;4304;53.876;10.662;2023-08-20T13:57:20;102070.75;;;26.80
8533;BMP280;4304;53.876;10.662;2023-08-20T13:59:45;102057.59;;;26.79
8533;BMP280;4304;53.876;10.662;2023-08-20T14:02:10;102093.41;;;26.84
8533;BMP280;4304;53.876;10.662;2023-08-20T14:04:36;102077.41;;;26.84
8533;BMP280;4304;53.876;10.662;2023-08-20T14:07:02;102052.88;;;26.89
8533;BMP280;4304;53.876;10.662;2023-08-20T14:09:27;102083.03;;;26.97
8533;BMP280;4304;53.876;10.662;2023-08-20T14:11:53;102078.72;;;26.96
8533;BMP280;4304;53.876;10.662;2023-08-20T14:14:18;102072.03;;;26.92
8533;BMP280;4304;53.876;10.662;2023-08-20T14:16:43;102073.78;;;26.77
8533;BMP280;4304;53.876;10.662;2023-08-20T14:19:09;102062.44;;;26.45
8533;BMP280;4304;53.876;10.662;2023-08-20T14:21:34;102058.28;;;26.43
8533;BMP280;4304;53.876;10.662;2023-08-20T14:24:00;102062.66;;;26.20
8533;BMP280;4304;53.876;10.662;2023-08-20T14:26:25;102054.50;;;26.14
8533;BMP280;4304;53.876;10.662;2023-08-20T14:28:50;102062.19;;;26.24